Ocean Century — 9HA4542 — position and weather

sailwx.info

Track history (hours):
 
Tides and Currents Weather Stations Pressure Air Temp Water Temp Dewpoint Dewpoint Depression Visibility Wind Speed Wind Dir Waves Ship Positions

Ocean Century

Last reported at 2018-Apr-23 09:28 UTC. Time now 2018-Apr-23 09:49 UTC.
Position N 53°33' E 000°09'.

Length 190 m; draft 9.1 m.

Type: Cargo ship. MMSI: 248162000.

Date/timePositionNaut miles runAvg speedWind from/ knotsBaromVisibWave heightAir tempDewpointWater temp
2018-Apr-23 09:28N 53°33' E 000°09'5 8.4
2018-Apr-23 08:52N 53°35' E 000°17'410.6
2018-Apr-23 08:28N 53°38' E 000°21'3 6.2
2018-Apr-23 07:59N 53°40' E 000°24'1 1.1
2018-Apr-23 07:25N 53°40' E 000°23'5 0.2
2018-Apr-22 04:57N 53°45' E 000°26'0 0.0
2018-Apr-21 22:27N 53°45' E 000°26'0 0.2
2018-Apr-21 21:51N 53°45' E 000°26'0 0.1
2018-Apr-21 21:30N 53°45' E 000°26'0 0.0
2018-Apr-21 20:51N 53°45' E 000°26'0 0.0
2018-Apr-21 20:30N 53°45' E 000°26'0 0.0
2018-Apr-21 20:00N 53°45' E 000°26'0 0.0
2018-Apr-21 19:30N 53°45' E 000°26'0 0.1
2018-Apr-21 18:57N 53°45' E 000°26'0 0.1
2018-Apr-21 18:27N 53°45' E 000°26'0 0.2
2018-Apr-21 18:00N 53°45' E 000°26'0 0.1
2018-Apr-21 17:27N 53°45' E 000°26'0 0.0
2018-Apr-21 14:18N 53°45' E 000°26'0 0.0
2018-Apr-21 13:57N 53°45' E 000°26'0 0.0
2018-Apr-21 13:12N 53°45' E 000°26'0 0.0
2018-Apr-21 04:21N 53°45' E 000°26'0 0.1
2018-Apr-21 04:00N 53°45' E 000°26'0 0.0
2018-Apr-20 23:39N 53°45' E 000°26'0 0.0
2018-Apr-20 23:27N 53°45' E 000°26'0 0.1
2018-Apr-20 22:48N 53°45' E 000°26'0 0.0
2018-Apr-20 04:00N 53°45' E 000°26'8 1.5
2018-Apr-19 22:18N 53°37' E 000°21'611.5
2018-Apr-19 21:47N 53°33' E 000°13'310.6
2018-Apr-19 21:30N 53°33' E 000°08'511.1
2018-Apr-19 21:00N 53°35' E 000°00'510.3
2018-Apr-19 20:30N 53°37' W 000°08'2 4.7
2018-Apr-19 20:00N 53°38' W 000°12'0 0.3
2018-Apr-19 19:30N 53°38' W 000°12'0 0.0
2018-Apr-19 19:00N 53°38' W 000°12'0 0.0
2018-Apr-19 18:30N 53°38' W 000°12'0 0.0
2018-Apr-19 17:57N 53°38' W 000°12'0 0.0
2018-Apr-19 17:18N 53°38' W 000°12'0 0.0
2018-Apr-19 16:57N 53°38' W 000°12'0 0.0
2018-Apr-19 16:30N 53°38' W 000°12'0 0.0
2018-Apr-19 16:00N 53°38' W 000°12'0 0.0
2018-Apr-19 15:27N 53°38' W 000°12'0 0.0
2018-Apr-19 15:00N 53°38' W 000°12'0 0.0
2018-Apr-19 14:30N 53°38' W 000°12'0 0.0
2018-Apr-19 13:57N 53°38' W 000°12'0 0.0
2018-Apr-19 13:30N 53°38' W 000°12'0 0.0
2018-Apr-19 13:00N 53°38' W 000°12'0 0.0
2018-Apr-19 12:21N 53°38' W 000°12'0 0.0
2018-Apr-19 12:00N 53°38' W 000°12'0 0.0
2018-Apr-19 11:30N 53°38' W 000°12'0 0.0
2018-Apr-19 10:51N 53°38' W 000°12'0 0.0
2018-Apr-19 10:15N 53°38' W 000°12'0 0.0
2018-Apr-19 09:57N 53°38' W 000°12'0 0.0
2018-Apr-19 09:27N 53°38' W 000°12'0 0.0
2018-Apr-19 09:00N 53°38' W 000°12'0 0.0
2018-Apr-19 08:27N 53°38' W 000°12'0 0.0
2018-Apr-19 07:51N 53°38' W 000°12'0 0.0
2018-Apr-19 07:30N 53°38' W 000°12'0 0.0
2018-Apr-19 07:00N 53°38' W 000°12'0 0.0
2018-Apr-19 06:27N 53°38' W 000°12'0 0.0
2018-Apr-19 05:57N 53°38' W 000°12'0 0.0
2018-Apr-19 05:12N 53°38' W 000°12'0 0.0
2018-Apr-19 05:00N 53°38' W 000°12'0 0.0
2018-Apr-19 04:30N 53°38' W 000°12'0 0.0
2018-Apr-19 04:00N 53°38' W 000°12'0 0.0
2018-Apr-19 03:30N 53°38' W 000°12'0 0.0
2018-Apr-19 03:00N 53°38' W 000°12'0 0.0
2018-Apr-19 02:30N 53°38' W 000°12'0 0.0
2018-Apr-19 01:57N 53°38' W 000°12'0 0.0
2018-Apr-19 01:30N 53°38' W 000°12'0 0.0
2018-Apr-19 00:57N 53°38' W 000°12'0 0.0
2018-Apr-19 00:30N 53°38' W 000°12'0 0.0
2018-Apr-18 23:45N 53°38' W 000°12'0 0.0
2018-Apr-18 23:30N 53°38' W 000°12'0 0.0
2018-Apr-18 22:57N 53°38' W 000°12'0 0.0
2018-Apr-18 22:27N 53°38' W 000°12'0 0.0
2018-Apr-18 22:00N 53°38' W 000°12'0 0.0
2018-Apr-18 21:18N 53°38' W 000°12'0 0.0
2018-Apr-18 21:00N 53°38' W 000°12'0 0.0
2018-Apr-18 20:30N 53°38' W 000°12'0 0.0
2018-Apr-18 19:57N 53°38' W 000°12'0 0.0
2018-Apr-18 19:27N 53°38' W 000°12'0 0.0
2018-Apr-18 18:57N 53°38' W 000°12'0 0.0
2018-Apr-18 18:21N 53°38' W 000°12'0 0.0
2018-Apr-18 18:00N 53°38' W 000°12'0 0.0
2018-Apr-18 17:24N 53°38' W 000°12'0 0.0
2018-Apr-18 16:36N 53°38' W 000°12'0 0.0
2018-Apr-18 16:27N 53°38' W 000°12'0 0.0
2018-Apr-18 16:00N 53°38' W 000°12'0 0.0
2018-Apr-18 15:30N 53°38' W 000°12'0 0.0
2018-Apr-18 15:00N 53°38' W 000°12'0 0.0
2018-Apr-18 14:27N 53°38' W 000°12'0 0.0
2018-Apr-18 13:57N 53°38' W 000°12'0 0.0
2018-Apr-18 13:27N 53°38' W 000°12'0 0.0
2018-Apr-18 12:57N 53°38' W 000°12'0 0.0
2018-Apr-18 12:18N 53°38' W 000°12'0 0.0
2018-Apr-18 11:57N 53°38' W 000°12'0 0.0
2018-Apr-18 11:30N 53°38' W 000°12'0 0.0
2018-Apr-18 11:00N 53°38' W 000°12'0 0.0
2018-Apr-18 10:27N 53°38' W 000°12'0 0.0
2018-Apr-18 10:00N 53°38' W 000°12'0 0.0
2018-Apr-18 09:30N 53°38' W 000°12'0 0.0
2018-Apr-18 08:51N 53°38' W 000°12'0 0.0
2018-Apr-18 08:30N 53°38' W 000°12'0 0.0
2018-Apr-18 07:57N 53°38' W 000°12'0 0.0
2018-Apr-18 07:30N 53°38' W 000°12'0 0.0
2018-Apr-18 07:00N 53°38' W 000°12'0 0.0
2018-Apr-18 06:30N 53°38' W 000°12'0 0.0
2018-Apr-18 06:00N 53°38' W 000°12'0 0.0
2018-Apr-18 05:27N 53°38' W 000°12'0 0.0
2018-Apr-18 05:00N 53°38' W 000°12'0 0.0
2018-Apr-18 04:27N 53°38' W 000°12'0 0.0
2018-Apr-18 04:00N 53°38' W 000°12'0 0.0
2018-Apr-18 03:21N 53°38' W 000°12'0 0.0
2018-Apr-18 03:00N 53°38' W 000°12'0 0.0
2018-Apr-18 02:21N 53°38' W 000°12'0 0.0
2018-Apr-18 00:48N 53°38' W 000°12'0 0.0
2018-Apr-18 00:27N 53°38' W 000°12'0 0.0
2018-Apr-17 23:54N 53°38' W 000°12'0 0.0
2018-Apr-17 23:30N 53°38' W 000°12'0 0.0
2018-Apr-17 22:57N 53°38' W 000°12'0 0.0
2018-Apr-17 22:27N 53°38' W 000°12'0 0.0
2018-Apr-17 22:00N 53°38' W 000°12'0 0.0
2018-Apr-17 21:30N 53°38' W 000°12'0 0.0
2018-Apr-17 20:57N 53°38' W 000°12'0 0.0
2018-Apr-17 20:27N 53°38' W 000°12'0 0.0
2018-Apr-17 19:51N 53°38' W 000°12'0 0.0
2018-Apr-17 19:30N 53°38' W 000°12'0 0.0
2018-Apr-17 18:57N 53°38' W 000°12'0 0.0
2018-Apr-17 18:21N 53°38' W 000°12'0 0.0
2018-Apr-17 17:03N 53°38' W 000°12'0 0.0
2018-Apr-17 17:00N 53°38' W 000°12'0 0.0
2018-Apr-17 16:27N 53°38' W 000°12'0 0.0
2018-Apr-17 16:00N 53°38' W 000°12'0 0.0
2018-Apr-17 15:24N 53°38' W 000°12'0 0.0
2018-Apr-17 14:54N 53°38' W 000°12'0 0.0
2018-Apr-17 14:30N 53°38' W 000°12'0 0.0
2018-Apr-17 14:00N 53°38' W 000°12'0 0.0
2018-Apr-17 13:30N 53°38' W 000°12'0 0.0
2018-Apr-17 13:00N 53°38' W 000°12'0 0.0
2018-Apr-17 12:27N 53°38' W 000°12'0 0.0
2018-Apr-17 12:00N 53°38' W 000°12'0 0.0
2018-Apr-17 11:27N 53°38' W 000°12'0 0.0
2018-Apr-17 11:00N 53°38' W 000°12'0 0.0
2018-Apr-17 10:30N 53°38' W 000°12'0 0.0
2018-Apr-17 10:00N 53°38' W 000°12'0 0.0
2018-Apr-17 09:27N 53°38' W 000°12'0 0.0
2018-Apr-17 08:57N 53°38' W 000°12'0 0.0
2018-Apr-17 08:24N 53°38' W 000°12'0 0.0
2018-Apr-17 07:45N 53°38' W 000°12'0 0.0
2018-Apr-17 07:21N 53°38' W 000°12'0 0.0
2018-Apr-17 07:00N 53°38' W 000°12'1 1.8
2018-Apr-17 06:30N 53°38' W 000°10'2 5.1
2018-Apr-17 06:00N 53°37' W 000°06'3 6.9
2018-Apr-17 05:30N 53°37' W 000°01'4 8.3
2018-Apr-17 05:00N 53°35' E 000°05'5 9.2
2018-Apr-17 04:30N 53°33' E 000°13'6 9.3
2018-Apr-17 03:53N 53°37' E 000°20'3 6.9
2018-Apr-17 03:25N 53°39' E 000°24'1 1.4
2018-Apr-17 02:48N 53°40' E 000°23'1 1.7
2018-Apr-17 02:30N 53°41' E 000°24'  
Track history (hours):
 
Tides and Currents Weather Stations Pressure Air Temp Water Temp Dewpoint Dewpoint Depression Visibility Wind Speed Wind Dir Waves Ship Positions

Ocean Century

Last reported at 2018-Apr-23 09:28 UTC. Time now 2018-Apr-23 09:49 UTC.
Position N 53°33' E 000°09'.

Length 190 m; draft 9.1 m.

Type: Cargo ship. MMSI: 248162000.

Date/timePositionNaut miles runAvg speedWind from/ knotsBaromVisibWave heightAir tempDewpointWater temp
2018-Apr-23 09:28N 53°33' E 000°09'5 8.4
2018-Apr-23 08:52N 53°35' E 000°17'410.6
2018-Apr-23 08:28N 53°38' E 000°21'3 6.2
2018-Apr-23 07:59N 53°40' E 000°24'1 1.1
2018-Apr-23 07:25N 53°40' E 000°23'5 0.2
2018-Apr-22 04:57N 53°45' E 000°26'0 0.0
2018-Apr-21 22:27N 53°45' E 000°26'0 0.2
2018-Apr-21 21:51N 53°45' E 000°26'0 0.1
2018-Apr-21 21:30N 53°45' E 000°26'0 0.0
2018-Apr-21 20:51N 53°45' E 000°26'0 0.0
2018-Apr-21 20:30N 53°45' E 000°26'0 0.0
2018-Apr-21 20:00N 53°45' E 000°26'0 0.0
2018-Apr-21 19:30N 53°45' E 000°26'0 0.1
2018-Apr-21 18:57N 53°45' E 000°26'0 0.1
2018-Apr-21 18:27N 53°45' E 000°26'0 0.2
2018-Apr-21 18:00N 53°45' E 000°26'0 0.1
2018-Apr-21 17:27N 53°45' E 000°26'0 0.0
2018-Apr-21 14:18N 53°45' E 000°26'0 0.0
2018-Apr-21 13:57N 53°45' E 000°26'0 0.0
2018-Apr-21 13:12N 53°45' E 000°26'0 0.0
2018-Apr-21 04:21N 53°45' E 000°26'0 0.1
2018-Apr-21 04:00N 53°45' E 000°26'0 0.0
2018-Apr-20 23:39N 53°45' E 000°26'0 0.0
2018-Apr-20 23:27N 53°45' E 000°26'0 0.1
2018-Apr-20 22:48N 53°45' E 000°26'0 0.0
2018-Apr-20 04:00N 53°45' E 000°26'8 1.5
2018-Apr-19 22:18N 53°37' E 000°21'611.5
2018-Apr-19 21:47N 53°33' E 000°13'310.6
2018-Apr-19 21:30N 53°33' E 000°08'511.1
2018-Apr-19 21:00N 53°35' E 000°00'510.3
2018-Apr-19 20:30N 53°37' W 000°08'2 4.7
2018-Apr-19 20:00N 53°38' W 000°12'0 0.3
2018-Apr-19 19:30N 53°38' W 000°12'0 0.0
2018-Apr-19 19:00N 53°38' W 000°12'0 0.0
2018-Apr-19 18:30N 53°38' W 000°12'0 0.0
2018-Apr-19 17:57N 53°38' W 000°12'0 0.0
2018-Apr-19 17:18N 53°38' W 000°12'0 0.0
2018-Apr-19 16:57N 53°38' W 000°12'0 0.0
2018-Apr-19 16:30N 53°38' W 000°12'0 0.0
2018-Apr-19 16:00N 53°38' W 000°12'0 0.0
2018-Apr-19 15:27N 53°38' W 000°12'0 0.0
2018-Apr-19 15:00N 53°38' W 000°12'0 0.0
2018-Apr-19 14:30N 53°38' W 000°12'0 0.0
2018-Apr-19 13:57N 53°38' W 000°12'0 0.0
2018-Apr-19 13:30N 53°38' W 000°12'0 0.0
2018-Apr-19 13:00N 53°38' W 000°12'0 0.0
2018-Apr-19 12:21N 53°38' W 000°12'0 0.0
2018-Apr-19 12:00N 53°38' W 000°12'0 0.0
2018-Apr-19 11:30N 53°38' W 000°12'0 0.0
2018-Apr-19 10:51N 53°38' W 000°12'0 0.0
2018-Apr-19 10:15N 53°38' W 000°12'0 0.0
2018-Apr-19 09:57N 53°38' W 000°12'0 0.0
2018-Apr-19 09:27N 53°38' W 000°12'0 0.0
2018-Apr-19 09:00N 53°38' W 000°12'0 0.0
2018-Apr-19 08:27N 53°38' W 000°12'0 0.0
2018-Apr-19 07:51N 53°38' W 000°12'0 0.0
2018-Apr-19 07:30N 53°38' W 000°12'0 0.0
2018-Apr-19 07:00N 53°38' W 000°12'0 0.0
2018-Apr-19 06:27N 53°38' W 000°12'0 0.0
2018-Apr-19 05:57N 53°38' W 000°12'0 0.0
2018-Apr-19 05:12N 53°38' W 000°12'0 0.0
2018-Apr-19 05:00N 53°38' W 000°12'0 0.0
2018-Apr-19 04:30N 53°38' W 000°12'0 0.0
2018-Apr-19 04:00N 53°38' W 000°12'0 0.0
2018-Apr-19 03:30N 53°38' W 000°12'0 0.0
2018-Apr-19 03:00N 53°38' W 000°12'0 0.0
2018-Apr-19 02:30N 53°38' W 000°12'0 0.0
2018-Apr-19 01:57N 53°38' W 000°12'0 0.0
2018-Apr-19 01:30N 53°38' W 000°12'0 0.0
2018-Apr-19 00:57N 53°38' W 000°12'0 0.0
2018-Apr-19 00:30N 53°38' W 000°12'0 0.0
2018-Apr-18 23:45N 53°38' W 000°12'0 0.0
2018-Apr-18 23:30N 53°38' W 000°12'0 0.0
2018-Apr-18 22:57N 53°38' W 000°12'0 0.0
2018-Apr-18 22:27N 53°38' W 000°12'0 0.0
2018-Apr-18 22:00N 53°38' W 000°12'0 0.0
2018-Apr-18 21:18N 53°38' W 000°12'0 0.0
2018-Apr-18 21:00N 53°38' W 000°12'0 0.0
2018-Apr-18 20:30N 53°38' W 000°12'0 0.0
2018-Apr-18 19:57N 53°38' W 000°12'0 0.0
2018-Apr-18 19:27N 53°38' W 000°12'0 0.0
2018-Apr-18 18:57N 53°38' W 000°12'0 0.0
2018-Apr-18 18:21N 53°38' W 000°12'0 0.0
2018-Apr-18 18:00N 53°38' W 000°12'0 0.0
2018-Apr-18 17:24N 53°38' W 000°12'0 0.0
2018-Apr-18 16:36N 53°38' W 000°12'0 0.0
2018-Apr-18 16:27N 53°38' W 000°12'0 0.0
2018-Apr-18 16:00N 53°38' W 000°12'0 0.0
2018-Apr-18 15:30N 53°38' W 000°12'0 0.0
2018-Apr-18 15:00N 53°38' W 000°12'0 0.0
2018-Apr-18 14:27N 53°38' W 000°12'0 0.0
2018-Apr-18 13:57N 53°38' W 000°12'0 0.0
2018-Apr-18 13:27N 53°38' W 000°12'0 0.0
2018-Apr-18 12:57N 53°38' W 000°12'0 0.0
2018-Apr-18 12:18N 53°38' W 000°12'0 0.0
2018-Apr-18 11:57N 53°38' W 000°12'0 0.0
2018-Apr-18 11:30N 53°38' W 000°12'0 0.0
2018-Apr-18 11:00N 53°38' W 000°12'0 0.0
2018-Apr-18 10:27N 53°38' W 000°12'0 0.0
2018-Apr-18 10:00N 53°38' W 000°12'0 0.0
2018-Apr-18 09:30N 53°38' W 000°12'0 0.0
2018-Apr-18 08:51N 53°38' W 000°12'0 0.0
2018-Apr-18 08:30N 53°38' W 000°12'0 0.0
2018-Apr-18 07:57N 53°38' W 000°12'0 0.0
2018-Apr-18 07:30N 53°38' W 000°12'0 0.0
2018-Apr-18 07:00N 53°38' W 000°12'0 0.0
2018-Apr-18 06:30N 53°38' W 000°12'0 0.0
2018-Apr-18 06:00N 53°38' W 000°12'0 0.0
2018-Apr-18 05:27N 53°38' W 000°12'0 0.0
2018-Apr-18 05:00N 53°38' W 000°12'0 0.0
2018-Apr-18 04:27N 53°38' W 000°12'0 0.0
2018-Apr-18 04:00N 53°38' W 000°12'0 0.0
2018-Apr-18 03:21N 53°38' W 000°12'0 0.0
2018-Apr-18 03:00N 53°38' W 000°12'0 0.0
2018-Apr-18 02:21N 53°38' W 000°12'0 0.0
2018-Apr-18 00:48N 53°38' W 000°12'0 0.0
2018-Apr-18 00:27N 53°38' W 000°12'0 0.0
2018-Apr-17 23:54N 53°38' W 000°12'0 0.0
2018-Apr-17 23:30N 53°38' W 000°12'0 0.0
2018-Apr-17 22:57N 53°38' W 000°12'0 0.0
2018-Apr-17 22:27N 53°38' W 000°12'0 0.0
2018-Apr-17 22:00N 53°38' W 000°12'0 0.0
2018-Apr-17 21:30N 53°38' W 000°12'0 0.0
2018-Apr-17 20:57N 53°38' W 000°12'0 0.0
2018-Apr-17 20:27N 53°38' W 000°12'0 0.0
2018-Apr-17 19:51N 53°38' W 000°12'0 0.0
2018-Apr-17 19:30N 53°38' W 000°12'0 0.0
2018-Apr-17 18:57N 53°38' W 000°12'0 0.0
2018-Apr-17 18:21N 53°38' W 000°12'0 0.0
2018-Apr-17 17:03N 53°38' W 000°12'0 0.0
2018-Apr-17 17:00N 53°38' W 000°12'0 0.0
2018-Apr-17 16:27N 53°38' W 000°12'0 0.0
2018-Apr-17 16:00N 53°38' W 000°12'0 0.0
2018-Apr-17 15:24N 53°38' W 000°12'0 0.0
2018-Apr-17 14:54N 53°38' W 000°12'0 0.0
2018-Apr-17 14:30N 53°38' W 000°12'0 0.0
2018-Apr-17 14:00N 53°38' W 000°12'0 0.0
2018-Apr-17 13:30N 53°38' W 000°12'0 0.0
2018-Apr-17 13:00N 53°38' W 000°12'0 0.0
2018-Apr-17 12:27N 53°38' W 000°12'0 0.0
2018-Apr-17 12:00N 53°38' W 000°12'0 0.0
2018-Apr-17 11:27N 53°38' W 000°12'0 0.0
2018-Apr-17 11:00N 53°38' W 000°12'0 0.0
2018-Apr-17 10:30N 53°38' W 000°12'0 0.0
2018-Apr-17 10:00N 53°38' W 000°12'0 0.0
2018-Apr-17 09:27N 53°38' W 000°12'0 0.0
2018-Apr-17 08:57N 53°38' W 000°12'0 0.0
2018-Apr-17 08:24N 53°38' W 000°12'0 0.0
2018-Apr-17 07:45N 53°38' W 000°12'0 0.0
2018-Apr-17 07:21N 53°38' W 000°12'0 0.0
2018-Apr-17 07:00N 53°38' W 000°12'1 1.8
2018-Apr-17 06:30N 53°38' W 000°10'2 5.1
2018-Apr-17 06:00N 53°37' W 000°06'3 6.9
2018-Apr-17 05:30N 53°37' W 000°01'4 8.3
2018-Apr-17 05:00N 53°35' E 000°05'5 9.2
2018-Apr-17 04:30N 53°33' E 000°13'6 9.3
2018-Apr-17 03:53N 53°37' E 000°20'3 6.9
2018-Apr-17 03:25N 53°39' E 000°24'1 1.4
2018-Apr-17 02:48N 53°40' E 000°23'1 1.7
2018-Apr-17 02:30N 53°41' E 000°24'  

Dump ship's entire track history